createdAt,value
2023-05-19T00:00:48.560Z,10.59
2023-05-19T00:01:46.340Z,10.49
2023-05-19T00:02:46.440Z,10.41
2023-05-19T00:03:46.288Z,10.30
2023-05-19T00:04:46.278Z,10.20
2023-05-19T00:05:46.329Z,10.17
2023-05-19T00:06:46.264Z,10.17
2023-05-19T00:07:46.237Z,10.17
2023-05-19T00:08:46.224Z,10.13
2023-05-19T00:09:46.209Z,10.05
2023-05-19T00:10:46.212Z,10.02
2023-05-19T00:11:46.199Z,9.99
2023-05-19T00:12:46.173Z,9.92
2023-05-19T00:13:46.186Z,9.84
2023-05-19T00:14:46.148Z,9.84
2023-05-19T00:15:46.166Z,9.79
2023-05-19T00:16:46.120Z,9.80
2023-05-19T00:17:46.153Z,9.77
2023-05-19T00:18:46.118Z,9.74
2023-05-19T00:19:46.081Z,9.76
2023-05-19T00:20:46.082Z,9.77
2023-05-19T00:21:46.072Z,9.77
2023-05-19T00:22:46.041Z,9.83
2023-05-19T00:23:46.024Z,9.82
2023-05-19T00:24:46.033Z,9.87
2023-05-19T00:25:46.042Z,9.86
2023-05-19T00:26:45.988Z,9.89
2023-05-19T00:27:45.977Z,9.89
2023-05-19T00:28:45.967Z,9.89
2023-05-19T00:29:45.987Z,9.94
2023-05-19T00:30:45.945Z,9.89
2023-05-19T00:31:45.933Z,9.91
2023-05-19T00:32:46.038Z,9.91
2023-05-19T00:33:45.898Z,9.91
2023-05-19T00:34:45.919Z,9.92
2023-05-19T00:35:45.877Z,9.92
2023-05-19T00:36:45.869Z,9.92
2023-05-19T00:37:45.850Z,9.89
2023-05-19T00:38:45.847Z,9.95
2023-05-19T00:39:45.833Z,9.94
2023-05-19T00:40:45.822Z,9.89
2023-05-19T00:41:45.800Z,9.87
2023-05-19T00:42:45.842Z,9.84
2023-05-19T00:43:45.801Z,9.82
2023-05-19T00:44:45.759Z,9.80
2023-05-19T00:45:45.774Z,9.76
2023-05-19T00:46:45.811Z,9.76
2023-05-19T00:47:45.725Z,9.74
2023-05-19T00:48:45.718Z,9.72
2023-05-19T00:49:45.691Z,9.72
2023-05-19T00:50:45.676Z,9.68
2023-05-19T00:51:45.675Z,9.68
2023-05-19T00:52:45.669Z,9.66
2023-05-19T00:53:45.667Z,9.64
2023-05-19T00:54:45.630Z,9.61
2023-05-19T00:55:45.612Z,9.61
2023-05-19T00:56:45.605Z,9.54
2023-05-19T00:57:45.612Z,9.54
2023-05-19T00:58:45.584Z,9.51
2023-05-19T00:59:45.571Z,9.50
2023-05-19T01:00:45.574Z,9.48
2023-05-19T01:01:45.564Z,9.46
2023-05-19T01:02:45.630Z,9.41
2023-05-19T01:03:45.600Z,9.44
2023-05-19T01:04:45.500Z,9.44
2023-05-19T01:05:45.489Z,9.43
2023-05-19T01:06:45.490Z,9.37
2023-05-19T01:07:45.476Z,9.37
2023-05-19T01:08:45.446Z,9.39
2023-05-19T01:09:45.438Z,9.37
2023-05-19T01:10:45.419Z,9.29
2023-05-19T01:11:45.426Z,9.26
2023-05-19T01:12:45.401Z,9.21
2023-05-19T01:13:45.394Z,9.14
2023-05-19T01:14:45.372Z,9.16
2023-05-19T01:15:45.370Z,9.08
2023-05-19T01:16:45.412Z,9.02
2023-05-19T01:17:45.461Z,9.04
2023-05-19T01:18:45.327Z,9.08
2023-05-19T01:19:45.306Z,9.02
2023-05-19T01:20:45.306Z,9.00
2023-05-19T01:21:45.309Z,9.00
2023-05-19T01:22:45.266Z,8.99
2023-05-19T01:23:45.254Z,8.92
2023-05-19T01:24:45.263Z,8.89
2023-05-19T01:25:45.247Z,8.88
2023-05-19T01:26:45.228Z,8.88
2023-05-19T01:27:45.203Z,8.88
2023-05-19T01:28:45.193Z,8.85
2023-05-19T01:29:45.180Z,8.89
2023-05-19T01:30:45.183Z,8.88
2023-05-19T01:31:45.166Z,8.88
2023-05-19T01:32:45.194Z,8.84
2023-05-19T01:33:45.147Z,8.82
2023-05-19T01:34:45.116Z,8.81
2023-05-19T01:35:45.121Z,8.84
2023-05-19T01:36:45.111Z,8.82
2023-05-19T01:37:45.096Z,8.78
2023-05-19T01:38:45.071Z,8.71
2023-05-19T01:39:45.063Z,8.69
2023-05-19T01:40:45.055Z,8.63
2023-05-19T01:41:45.029Z,8.64
2023-05-19T01:42:45.016Z,8.63
2023-05-19T01:43:45.007Z,8.61
2023-05-19T01:44:44.990Z,8.60
2023-05-19T01:45:45.065Z,8.51
2023-05-19T01:46:44.964Z,8.46
2023-05-19T01:47:44.966Z,8.45
2023-05-19T01:48:44.942Z,8.42
2023-05-19T01:49:44.973Z,8.34
2023-05-19T01:50:44.932Z,8.26
2023-05-19T01:51:44.905Z,8.19
2023-05-19T01:52:44.886Z,8.09
2023-05-19T01:53:44.884Z,8.05
2023-05-19T01:54:45.066Z,8.06
2023-05-19T01:55:44.849Z,8.00
2023-05-19T01:56:44.841Z,7.98
2023-05-19T01:57:44.830Z,7.95
2023-05-19T01:58:44.819Z,7.93
2023-05-19T01:59:44.809Z,7.97
2023-05-19T02:00:44.780Z,7.94
2023-05-19T02:01:44.921Z,7.95
2023-05-19T02:02:44.820Z,7.95
2023-05-19T02:03:44.761Z,7.95
2023-05-19T02:04:44.849Z,8.00
2023-05-19T02:05:44.740Z,7.98
2023-05-19T02:06:44.706Z,8.03
2023-05-19T02:07:44.690Z,8.00
2023-05-19T02:08:44.694Z,8.01
2023-05-19T02:09:44.660Z,8.03
2023-05-19T02:10:44.648Z,8.03
2023-05-19T02:11:44.636Z,8.03
2023-05-19T02:12:44.618Z,8.03
2023-05-19T02:13:44.621Z,7.98
2023-05-19T02:14:44.599Z,8.01
2023-05-19T02:15:44.585Z,8.00
2023-05-19T02:16:44.573Z,8.00
2023-05-19T02:17:44.600Z,8.03
2023-05-19T02:18:44.562Z,8.00
2023-05-19T02:19:44.527Z,7.98
2023-05-19T02:20:44.523Z,7.98
2023-05-19T02:21:44.525Z,8.00
2023-05-19T02:22:44.506Z,8.00
2023-05-19T02:23:44.492Z,7.95
2023-05-19T02:24:44.483Z,8.00
2023-05-19T02:25:44.449Z,7.94
2023-05-19T02:26:44.431Z,8.00
2023-05-19T02:27:44.438Z,7.98
2023-05-19T02:28:44.423Z,7.97
2023-05-19T02:29:44.398Z,7.93
2023-05-19T02:30:44.381Z,7.90
2023-05-19T02:31:44.419Z,7.79
2023-05-19T02:32:44.391Z,7.76
2023-05-19T02:33:44.376Z,7.79
2023-05-19T02:34:44.326Z,7.77
2023-05-19T02:35:46.443Z,7.76
2023-05-19T02:36:44.318Z,7.76
2023-05-19T02:37:44.387Z,7.76
2023-05-19T02:38:44.281Z,7.80
2023-05-19T02:39:44.260Z,7.77
2023-05-19T02:40:44.244Z,7.77
2023-05-19T02:41:44.249Z,7.73
2023-05-19T02:42:44.224Z,7.76
2023-05-19T02:43:44.210Z,7.83
2023-05-19T02:44:44.586Z,7.87
2023-05-19T02:45:44.182Z,7.88
2023-05-19T02:46:44.256Z,7.93
2023-05-19T02:47:44.178Z,7.90
2023-05-19T02:48:44.138Z,7.87
2023-05-19T02:49:44.126Z,7.88
2023-05-19T02:50:44.126Z,7.91
2023-05-19T02:51:44.123Z,7.90
2023-05-19T02:52:44.091Z,7.87
2023-05-19T02:53:44.099Z,7.90
2023-05-19T02:54:44.063Z,7.88
2023-05-19T02:55:44.063Z,7.94
2023-05-19T02:56:44.037Z,7.88
2023-05-19T02:57:44.033Z,7.93
2023-05-19T02:58:44.012Z,7.95
2023-05-19T02:59:43.993Z,7.93
2023-05-19T03:00:43.997Z,7.91
2023-05-19T03:01:43.994Z,7.85
2023-05-19T03:02:44.109Z,7.88
2023-05-19T03:03:44.043Z,7.88
2023-05-19T03:04:43.938Z,7.87
2023-05-19T03:05:43.927Z,7.88
2023-05-19T03:06:43.899Z,7.82
2023-05-19T03:07:43.888Z,7.82
2023-05-19T03:08:43.871Z,7.77
2023-05-19T03:09:43.902Z,7.75
2023-05-19T03:10:43.855Z,7.75
2023-05-19T03:11:43.843Z,7.73
2023-05-19T03:12:43.824Z,7.73
2023-05-19T03:13:43.814Z,7.76
2023-05-19T03:14:43.810Z,7.80
2023-05-19T03:15:43.788Z,7.73
2023-05-19T03:16:43.990Z,7.70
2023-05-19T03:17:43.910Z,7.75
2023-05-19T03:18:43.766Z,7.72
2023-05-19T03:19:43.756Z,7.70
2023-05-19T03:20:43.720Z,7.69
2023-05-19T03:21:43.701Z,7.72
2023-05-19T03:22:43.691Z,7.70
2023-05-19T03:23:43.697Z,7.73
2023-05-19T03:24:43.678Z,7.70
2023-05-19T03:25:43.674Z,7.69
2023-05-19T03:26:43.655Z,7.66
2023-05-19T03:27:43.642Z,7.67
2023-05-19T03:28:43.629Z,7.70
2023-05-19T03:29:43.625Z,7.60
2023-05-19T03:30:43.595Z,7.57
2023-05-19T03:31:43.579Z,7.56
2023-05-19T03:32:43.626Z,7.60
2023-05-19T03:33:43.602Z,7.57
2023-05-19T03:34:43.534Z,7.53
2023-05-19T03:35:43.538Z,7.56
2023-05-19T03:36:43.529Z,7.54
2023-05-19T03:37:43.529Z,7.56
2023-05-19T03:38:43.543Z,7.53
2023-05-19T03:39:43.488Z,7.57
2023-05-19T03:40:43.466Z,7.53
2023-05-19T03:41:43.524Z,7.54
2023-05-19T03:42:43.461Z,7.53
2023-05-19T03:43:43.424Z,7.54
2023-05-19T03:44:43.404Z,7.57
2023-05-19T03:45:43.437Z,7.54
2023-05-19T03:46:43.397Z,7.54
2023-05-19T03:47:43.417Z,7.48
2023-05-19T03:48:43.381Z,7.53
2023-05-19T03:49:43.346Z,7.57
2023-05-19T03:50:43.332Z,7.58
2023-05-19T03:51:43.333Z,7.60
2023-05-19T03:52:43.315Z,7.61
2023-05-19T03:53:43.286Z,7.63
2023-05-19T03:54:43.272Z,7.67
2023-05-19T03:55:43.258Z,7.66
2023-05-19T03:56:43.266Z,7.67
2023-05-19T03:57:43.392Z,7.67
2023-05-19T03:58:43.227Z,7.69
2023-05-19T03:59:43.207Z,7.69
2023-05-19T04:00:43.194Z,7.72
2023-05-19T04:01:43.205Z,7.70
2023-05-19T04:02:43.251Z,7.75
2023-05-19T04:03:43.182Z,7.75
2023-05-19T04:04:43.164Z,7.82
2023-05-19T04:05:43.161Z,7.77
2023-05-19T04:06:43.133Z,7.82
2023-05-19T04:07:43.106Z,7.87
2023-05-19T04:08:43.086Z,7.90
2023-05-19T04:09:43.084Z,7.90
2023-05-19T04:10:43.079Z,7.85
2023-05-19T04:11:43.073Z,7.93
2023-05-19T04:12:43.051Z,7.97
2023-05-19T04:13:44.515Z,8.00
2023-05-19T04:14:43.007Z,8.08
2023-05-19T04:15:43.049Z,8.08
2023-05-19T04:16:42.980Z,8.09
2023-05-19T04:17:43.002Z,8.12
2023-05-19T04:18:42.979Z,8.13
2023-05-19T04:19:42.949Z,8.20
2023-05-19T04:20:42.961Z,8.26
2023-05-19T04:21:42.928Z,8.28
2023-05-19T04:22:42.911Z,8.34
2023-05-19T04:23:42.886Z,8.34
2023-05-19T04:24:42.889Z,8.37
2023-05-19T04:25:42.881Z,8.44
2023-05-19T04:26:42.850Z,8.44
2023-05-19T04:27:42.841Z,8.46
2023-05-19T04:28:42.823Z,8.49
2023-05-19T04:29:42.861Z,8.52
2023-05-19T04:30:42.802Z,8.51
2023-05-19T04:31:42.877Z,8.56
2023-05-19T04:32:42.778Z,8.60
2023-05-19T04:33:42.759Z,8.66
2023-05-19T04:34:42.759Z,8.70
2023-05-19T04:35:42.740Z,8.73
2023-05-19T04:36:42.726Z,8.82
2023-05-19T04:37:42.710Z,8.88
2023-05-19T04:38:42.708Z,8.94
2023-05-19T04:39:42.697Z,8.99
2023-05-19T04:40:42.668Z,8.99
2023-05-19T04:41:42.660Z,9.02
2023-05-19T04:42:42.647Z,9.06
2023-05-19T04:43:42.660Z,9.10
2023-05-19T04:44:42.621Z,9.21
2023-05-19T04:45:42.757Z,9.22
2023-05-19T04:46:42.666Z,9.28
2023-05-19T04:47:42.608Z,9.36
2023-05-19T04:48:42.583Z,9.39
2023-05-19T04:49:42.568Z,9.40
2023-05-19T04:50:42.536Z,9.44
2023-05-19T04:51:42.532Z,9.50
2023-05-19T04:52:42.535Z,9.48
2023-05-19T04:53:42.502Z,9.51
2023-05-19T04:54:42.495Z,9.54
2023-05-19T04:55:42.477Z,9.58
2023-05-19T04:56:42.465Z,9.64
2023-05-19T04:57:42.471Z,9.73
2023-05-19T04:58:42.450Z,9.73
2023-05-19T04:59:42.436Z,9.83
2023-05-19T05:00:42.414Z,9.91
2023-05-19T05:01:42.475Z,9.94
2023-05-19T05:02:42.517Z,10.01
2023-05-19T05:03:42.421Z,10.01
2023-05-19T05:04:42.377Z,10.05
2023-05-19T05:05:42.352Z,10.17
2023-05-19T05:06:42.352Z,10.25
2023-05-19T05:07:42.316Z,10.38
2023-05-19T05:08:42.303Z,10.46
2023-05-19T05:09:42.292Z,10.59
2023-05-19T05:10:42.283Z,10.71
2023-05-19T05:11:42.284Z,10.79
2023-05-19T05:12:42.249Z,10.93
2023-05-19T05:13:42.248Z,10.94
2023-05-19T05:14:42.225Z,10.99
2023-05-19T05:15:42.228Z,11.12
2023-05-19T05:16:42.265Z,11.26
2023-05-19T05:17:42.250Z,11.41
2023-05-19T05:18:44.378Z,11.51
2023-05-19T05:19:42.159Z,11.60
2023-05-19T05:20:42.159Z,11.78
2023-05-19T05:21:42.149Z,11.86
2023-05-19T05:22:42.131Z,12.02
2023-05-19T05:23:42.114Z,12.17
2023-05-19T05:24:42.094Z,12.25
2023-05-19T05:25:42.097Z,12.32
2023-05-19T05:26:42.063Z,12.36
2023-05-19T05:27:42.057Z,12.36
2023-05-19T05:28:42.160Z,12.40
2023-05-19T05:29:42.044Z,12.53
2023-05-19T05:30:42.026Z,12.47
2023-05-19T05:31:41.999Z,12.45
2023-05-19T05:32:42.067Z,12.43
2023-05-19T05:33:42.096Z,12.36
2023-05-19T05:34:41.987Z,12.36
2023-05-19T05:35:41.949Z,12.39
2023-05-19T05:36:41.945Z,12.43
2023-05-19T05:37:41.926Z,12.54
2023-05-19T05:38:41.908Z,12.50
2023-05-19T05:39:41.918Z,12.61
2023-05-19T05:40:41.891Z,12.86
2023-05-19T05:41:41.880Z,12.91
2023-05-19T05:42:41.865Z,13.13
2023-05-19T05:43:41.864Z,13.41
2023-05-19T05:44:41.851Z,13.56
2023-05-19T05:45:41.864Z,13.41
2023-05-19T05:46:41.817Z,13.57
2023-05-19T05:47:41.859Z,13.33
2023-05-19T05:48:41.803Z,13.37
2023-05-19T05:49:41.809Z,13.62
2023-05-19T05:50:41.759Z,13.85
2023-05-19T05:51:44.611Z,14.14
2023-05-19T05:52:41.734Z,13.68
2023-05-19T05:53:41.769Z,13.72
2023-05-19T05:54:41.720Z,13.90
2023-05-19T05:55:41.692Z,14.07
2023-05-19T05:56:41.683Z,14.17
2023-05-19T05:57:41.664Z,14.48
2023-05-19T05:58:41.686Z,14.82
2023-05-19T05:59:41.641Z,15.07
2023-05-19T06:00:41.630Z,15.36
2023-05-19T06:01:41.626Z,15.00
2023-05-19T06:02:41.782Z,14.91
2023-05-19T06:03:41.702Z,14.78
2023-05-19T06:04:41.596Z,14.99
2023-05-19T06:05:41.625Z,15.07
2023-05-19T06:06:41.576Z,15.25
2023-05-19T06:07:41.551Z,15.10
2023-05-19T06:08:41.554Z,15.15
2023-05-19T06:09:41.512Z,15.03
2023-05-19T06:10:41.497Z,14.88
2023-05-19T06:11:41.650Z,14.79
2023-05-19T06:12:41.502Z,14.82
2023-05-19T06:13:41.468Z,14.78
2023-05-19T06:14:41.456Z,14.78
2023-05-19T06:15:41.466Z,14.65
2023-05-19T06:16:41.500Z,14.51
2023-05-19T06:17:41.450Z,14.32
2023-05-19T06:18:41.437Z,14.43
2023-05-19T06:19:41.397Z,14.51
2023-05-19T06:20:41.372Z,14.59
2023-05-19T06:21:41.552Z,14.81
2023-05-19T06:22:41.344Z,14.89
2023-05-19T06:23:41.336Z,14.86
2023-05-19T06:24:41.320Z,14.88
2023-05-19T06:25:41.302Z,14.99
2023-05-19T06:26:41.309Z,15.17
2023-05-19T06:27:41.283Z,14.94
2023-05-19T06:28:41.262Z,14.92
2023-05-19T06:29:41.257Z,14.89
2023-05-19T06:30:41.262Z,15.03
2023-05-19T06:31:41.265Z,14.70
2023-05-19T06:32:41.228Z,14.81
2023-05-19T06:33:41.200Z,14.92
2023-05-19T06:34:41.200Z,15.11
2023-05-19T06:35:41.188Z,15.31
2023-05-19T06:36:41.161Z,15.52
2023-05-19T06:37:41.179Z,15.70
2023-05-19T06:38:41.136Z,15.68
2023-05-19T06:39:41.118Z,15.25
2023-05-19T06:40:41.128Z,15.36
2023-05-19T06:41:41.092Z,15.58
2023-05-19T06:42:41.083Z,15.67
2023-05-19T06:43:41.069Z,15.82
2023-05-19T06:44:41.075Z,16.17
2023-05-19T06:45:41.056Z,16.33
2023-05-19T06:46:41.063Z,16.20
2023-05-19T06:47:41.056Z,16.17
2023-05-19T06:48:41.005Z,16.21
2023-05-19T06:49:41.003Z,16.38
2023-05-19T06:50:40.988Z,16.54
2023-05-19T06:51:40.966Z,16.54
2023-05-19T06:52:40.951Z,16.10
2023-05-19T06:53:41.002Z,15.82
2023-05-19T06:54:40.943Z,15.79
2023-05-19T06:55:54.448Z,15.83
2023-05-19T06:56:40.905Z,15.55
2023-05-19T06:57:40.898Z,14.79
2023-05-19T06:58:40.874Z,14.91
2023-05-19T06:59:40.873Z,14.77
2023-05-19T07:00:40.849Z,14.86
2023-05-19T07:01:40.886Z,15.02
2023-05-19T07:02:40.900Z,15.03
2023-05-19T07:03:40.940Z,15.02
2023-05-19T07:04:40.820Z,14.88
2023-05-19T07:05:40.784Z,14.91
2023-05-19T07:06:40.780Z,14.96
2023-05-19T07:07:40.765Z,14.94
2023-05-19T07:08:40.770Z,14.99
2023-05-19T07:09:40.774Z,15.19
2023-05-19T07:10:40.724Z,15.36
2023-05-19T07:11:40.703Z,15.61
2023-05-19T07:12:40.694Z,15.97
2023-05-19T07:13:40.693Z,16.26
2023-05-19T07:14:40.666Z,16.41
2023-05-19T07:15:40.651Z,16.16
2023-05-19T07:16:40.860Z,16.08
2023-05-19T07:17:40.708Z,16.16
2023-05-19T07:18:40.699Z,15.88
2023-05-19T07:19:40.608Z,16.08
2023-05-19T07:20:40.595Z,16.21
2023-05-19T07:21:40.579Z,16.49
2023-05-19T07:22:40.580Z,15.97
2023-05-19T07:23:40.567Z,16.10
2023-05-19T07:24:40.543Z,16.26
2023-05-19T07:25:40.538Z,16.39
2023-05-19T07:26:40.515Z,16.86
2023-05-19T07:27:40.517Z,17.30
2023-05-19T07:28:41.691Z,17.42
2023-05-19T07:29:40.468Z,17.49
2023-05-19T07:30:40.463Z,17.97
2023-05-19T07:31:40.504Z,18.34
2023-05-19T07:32:40.484Z,18.26
2023-05-19T07:33:40.417Z,18.49
2023-05-19T07:34:40.403Z,18.68
2023-05-19T07:35:40.390Z,18.60
2023-05-19T07:36:40.395Z,18.60
2023-05-19T07:37:40.362Z,18.74
2023-05-19T07:38:40.384Z,18.59
2023-05-19T07:39:40.343Z,18.88
2023-05-19T07:40:40.325Z,19.09
2023-05-19T07:41:40.373Z,19.27
2023-05-19T07:42:40.299Z,19.41
2023-05-19T07:43:40.293Z,19.56
2023-05-19T07:44:40.282Z,19.45
2023-05-19T07:45:40.268Z,19.34
2023-05-19T07:46:40.355Z,19.37
2023-05-19T07:47:40.242Z,19.34
2023-05-19T07:48:40.214Z,19.45
2023-05-19T07:49:40.212Z,19.54
2023-05-19T07:50:40.193Z,19.48
2023-05-19T07:51:40.186Z,19.70
2023-05-19T07:52:40.166Z,19.52
2023-05-19T07:53:40.146Z,19.08
2023-05-19T07:54:40.140Z,19.15
2023-05-19T07:55:40.143Z,19.24
2023-05-19T07:56:40.132Z,19.34
2023-05-19T07:57:40.165Z,19.59
2023-05-19T07:58:40.084Z,19.70
2023-05-19T07:59:40.066Z,19.77
2023-05-19T08:00:40.093Z,19.54
2023-05-19T08:01:40.045Z,19.51
2023-05-19T08:02:40.118Z,19.62
2023-05-19T08:03:40.095Z,20.00
2023-05-19T08:04:40.050Z,20.19
2023-05-19T08:05:40.003Z,20.26
2023-05-19T08:06:39.976Z,20.59
2023-05-19T08:07:39.973Z,21.03
2023-05-19T08:08:39.955Z,21.37
2023-05-19T08:09:39.949Z,21.89
2023-05-19T08:10:39.946Z,22.25
2023-05-19T08:11:39.917Z,22.87
2023-05-19T08:12:39.902Z,23.43
2023-05-19T08:13:39.934Z,23.76
2023-05-19T08:14:39.890Z,23.77
2023-05-19T08:15:39.897Z,24.14
2023-05-19T08:16:39.849Z,24.73
2023-05-19T08:17:39.911Z,25.14
2023-05-19T08:18:39.878Z,25.06
2023-05-19T08:19:39.827Z,24.43
2023-05-19T08:20:39.798Z,24.92
2023-05-19T08:21:39.787Z,25.03
2023-05-19T08:22:39.792Z,25.54
2023-05-19T08:23:39.780Z,26.23
2023-05-19T08:24:39.766Z,26.77
2023-05-19T08:25:39.746Z,26.96
2023-05-19T08:26:39.737Z,27.00
2023-05-19T08:27:39.722Z,26.25
2023-05-19T08:28:39.709Z,25.83
2023-05-19T08:29:39.711Z,25.81
2023-05-19T08:30:39.676Z,25.25
2023-05-19T08:31:39.702Z,25.04
2023-05-19T08:32:39.713Z,25.07
2023-05-19T08:33:39.649Z,24.98
2023-05-19T08:34:39.630Z,25.08
2023-05-19T08:35:39.614Z,25.26
2023-05-19T08:36:39.596Z,25.58
2023-05-19T08:37:39.611Z,25.70
2023-05-19T08:38:39.610Z,25.62
2023-05-19T08:39:39.556Z,25.51
2023-05-19T08:40:39.552Z,25.16
2023-05-19T08:41:39.533Z,24.78
2023-05-19T08:42:39.536Z,24.38
2023-05-19T08:43:39.507Z,24.08
2023-05-19T08:44:39.495Z,24.02
2023-05-19T08:45:39.522Z,24.06
2023-05-19T08:46:39.575Z,23.87
2023-05-19T08:47:39.539Z,23.71
2023-05-19T08:48:39.449Z,23.13
2023-05-19T08:49:39.430Z,23.18
2023-05-19T08:50:39.426Z,23.18
2023-05-19T08:51:39.400Z,23.17
2023-05-19T08:52:39.402Z,23.12
2023-05-19T08:53:39.379Z,23.02
2023-05-19T08:54:39.363Z,22.80
2023-05-19T08:55:39.351Z,22.70
2023-05-19T08:56:39.353Z,22.68
2023-05-19T08:57:39.346Z,22.72
2023-05-19T08:58:39.311Z,22.63
2023-05-19T08:59:39.296Z,22.51
2023-05-19T09:00:39.314Z,22.26
2023-05-19T09:01:39.397Z,22.14
2023-05-19T09:02:50.356Z,21.91
2023-05-19T09:03:39.355Z,21.79
2023-05-19T09:04:39.360Z,21.91
2023-05-19T09:05:39.279Z,22.07
2023-05-19T09:06:39.222Z,22.13
2023-05-19T09:07:39.194Z,22.07
2023-05-19T09:08:39.183Z,22.07
2023-05-19T09:09:39.168Z,22.28
2023-05-19T09:10:39.175Z,22.32
2023-05-19T09:11:39.156Z,22.36
2023-05-19T09:12:39.131Z,22.26
2023-05-19T09:13:39.134Z,22.18
2023-05-19T09:14:39.105Z,22.26
2023-05-19T09:15:39.123Z,22.47
2023-05-19T09:16:39.119Z,22.43
2023-05-19T09:17:39.166Z,22.04
2023-05-19T09:18:39.077Z,21.93
2023-05-19T09:19:39.056Z,21.62
2023-05-19T09:20:39.040Z,21.64
2023-05-19T09:21:39.013Z,21.73
2023-05-19T09:22:39.004Z,22.07
2023-05-19T09:23:39.040Z,22.22
2023-05-19T09:24:38.994Z,22.33
2023-05-19T09:25:38.996Z,22.43
2023-05-19T09:26:38.953Z,22.60
2023-05-19T09:27:38.947Z,22.99
2023-05-19T09:28:38.928Z,23.62
2023-05-19T09:29:38.945Z,24.30
2023-05-19T09:30:38.902Z,24.77
2023-05-19T09:31:38.977Z,25.10
2023-05-19T09:32:38.906Z,24.99
2023-05-19T09:33:38.885Z,25.04
2023-05-19T09:34:38.862Z,25.13
2023-05-19T09:35:38.833Z,25.26
2023-05-19T09:36:38.826Z,25.26
2023-05-19T09:37:38.808Z,25.38
2023-05-19T09:38:38.812Z,25.72
2023-05-19T09:39:38.803Z,26.43
2023-05-19T09:40:38.771Z,27.22
2023-05-19T09:41:38.757Z,27.63
2023-05-19T09:42:38.743Z,27.83
2023-05-19T09:43:38.744Z,27.60
2023-05-19T09:44:38.726Z,27.78
2023-05-19T09:45:38.708Z,27.92
2023-05-19T09:46:38.783Z,28.45
2023-05-19T09:47:38.728Z,28.91
2023-05-19T09:48:38.687Z,29.04
2023-05-19T09:49:38.681Z,29.24
2023-05-19T09:50:38.645Z,29.53
2023-05-19T09:51:38.626Z,29.39
2023-05-19T09:52:38.648Z,29.50
2023-05-19T09:53:38.624Z,29.60
2023-05-19T09:54:38.612Z,29.76
2023-05-19T09:55:38.583Z,29.81
2023-05-19T09:56:38.568Z,30.21
2023-05-19T09:57:38.574Z,30.28
2023-05-19T09:58:38.549Z,30.78
2023-05-19T09:59:38.537Z,31.07
2023-05-19T10:00:38.526Z,31.27
2023-05-19T10:01:38.573Z,30.53
2023-05-19T10:02:38.541Z,30.37
2023-05-19T10:03:38.483Z,29.81
2023-05-19T10:04:38.479Z,29.91
2023-05-19T10:05:38.528Z,29.90
2023-05-19T10:06:38.471Z,29.61
2023-05-19T10:07:38.472Z,29.78
2023-05-19T10:08:38.426Z,29.53
2023-05-19T10:09:38.416Z,28.93
2023-05-19T10:10:38.401Z,28.62
2023-05-19T10:11:38.408Z,28.11
2023-05-19T10:12:38.372Z,27.96
2023-05-19T10:13:38.365Z,27.26
2023-05-19T10:14:38.363Z,26.85
2023-05-19T10:15:49.930Z,26.38
2023-05-19T10:16:39.381Z,25.77
2023-05-19T10:17:38.370Z,23.69
2023-05-19T10:18:39.991Z,23.37
2023-05-19T10:19:38.286Z,24.11
2023-05-19T10:20:38.274Z,24.51
2023-05-19T10:21:38.303Z,24.42
2023-05-19T10:22:38.256Z,25.50
2023-05-19T10:23:38.252Z,26.43
2023-05-19T10:24:38.233Z,27.22
2023-05-19T10:25:38.249Z,26.44
2023-05-19T10:26:38.216Z,26.73
2023-05-19T10:27:38.191Z,27.55
2023-05-19T10:28:38.172Z,28.60
2023-05-19T10:29:38.170Z,29.34
2023-05-19T10:30:38.175Z,29.78
2023-05-19T10:31:38.227Z,30.08
2023-05-19T10:32:38.181Z,30.16
2023-05-19T10:33:38.124Z,30.61
2023-05-19T10:34:38.101Z,28.79
2023-05-19T10:35:38.296Z,27.89
2023-05-19T10:36:38.095Z,26.77
2023-05-19T10:37:38.089Z,25.77
2023-05-19T10:38:38.052Z,26.21
2023-05-19T10:39:38.117Z,25.41
2023-05-19T10:40:38.044Z,25.65
2023-05-19T10:41:38.014Z,24.85
2023-05-19T10:42:38.002Z,23.86
2023-05-19T10:43:37.990Z,23.32
2023-05-19T10:44:37.994Z,23.92
2023-05-19T10:45:37.975Z,24.78
2023-05-19T10:46:37.990Z,24.73
2023-05-19T10:47:38.017Z,24.40
2023-05-19T10:48:37.929Z,25.59
2023-05-19T10:49:37.934Z,26.66
2023-05-19T10:50:37.914Z,26.13
2023-05-19T10:51:37.894Z,26.63
2023-05-19T10:52:37.886Z,27.18
2023-05-19T10:53:38.020Z,26.55
2023-05-19T10:54:37.885Z,25.26
2023-05-19T10:55:37.847Z,24.45
2023-05-19T10:56:37.844Z,24.80
2023-05-19T10:57:37.824Z,25.14
2023-05-19T10:58:37.844Z,24.63
2023-05-19T10:59:37.805Z,22.62
2023-05-19T11:00:37.781Z,22.53
2023-05-19T11:01:37.782Z,23.21
2023-05-19T11:02:37.857Z,23.74
2023-05-19T11:03:37.796Z,24.20
2023-05-19T11:04:37.740Z,23.81
2023-05-19T11:05:37.727Z,22.69
2023-05-19T11:06:37.747Z,21.66
2023-05-19T11:07:37.702Z,21.58
2023-05-19T11:08:37.724Z,21.72
2023-05-19T11:09:40.498Z,21.25
2023-05-19T11:10:37.671Z,21.40
2023-05-19T11:11:37.650Z,21.25
2023-05-19T11:12:37.653Z,21.07
2023-05-19T11:13:37.663Z,20.97
2023-05-19T11:14:37.607Z,21.14
2023-05-19T11:15:37.597Z,21.02
2023-05-19T11:16:37.710Z,21.12
2023-05-19T11:17:37.671Z,21.18
2023-05-19T11:18:37.638Z,21.62
2023-05-19T11:19:37.543Z,21.85
2023-05-19T11:20:37.544Z,21.61
2023-05-19T11:21:37.520Z,21.55
2023-05-19T11:22:37.519Z,22.07
2023-05-19T11:23:37.562Z,22.15
2023-05-19T11:24:37.482Z,22.11
2023-05-19T11:25:37.490Z,22.76
2023-05-19T11:26:37.457Z,23.78
2023-05-19T11:27:37.462Z,25.01
2023-05-19T11:28:37.427Z,25.13
2023-05-19T11:29:37.514Z,25.26
2023-05-19T11:30:37.410Z,25.53
2023-05-19T11:31:37.420Z,25.95
2023-05-19T11:32:37.423Z,26.31
2023-05-19T11:33:37.371Z,26.38
2023-05-19T11:34:37.359Z,25.85
2023-05-19T11:35:37.568Z,25.08
2023-05-19T11:36:37.344Z,24.40
2023-05-19T11:37:37.330Z,24.51
2023-05-19T11:38:37.298Z,24.03
2023-05-19T11:39:37.295Z,23.54
2023-05-19T11:40:37.288Z,23.88
2023-05-19T11:41:37.310Z,23.93
2023-05-19T11:42:37.321Z,24.55
2023-05-19T11:43:37.235Z,25.83
2023-05-19T11:44:37.235Z,26.44
2023-05-19T11:45:37.326Z,27.00
2023-05-19T11:46:37.228Z,27.29
2023-05-19T11:47:50.888Z,25.81
2023-05-19T11:48:37.191Z,24.76
2023-05-19T11:49:37.171Z,25.47
2023-05-19T11:50:37.165Z,25.80
2023-05-19T11:51:37.131Z,25.68
2023-05-19T11:52:37.120Z,23.65
2023-05-19T11:53:37.117Z,23.06
2023-05-19T11:54:37.132Z,22.85
2023-05-19T11:55:37.103Z,22.54
2023-05-19T11:56:37.066Z,22.51
2023-05-19T11:57:37.077Z,22.57
2023-05-19T11:58:37.071Z,22.91
2023-05-19T11:59:37.048Z,22.80
2023-05-19T12:00:37.038Z,23.18
2023-05-19T12:01:37.015Z,23.55
2023-05-19T12:02:37.063Z,24.05
2023-05-19T12:03:37.281Z,24.32
2023-05-19T12:04:37.010Z,24.81
2023-05-19T12:05:40.762Z,24.89
2023-05-19T12:06:37.063Z,24.58
2023-05-19T12:07:36.931Z,24.58
2023-05-19T12:08:36.931Z,24.58
2023-05-19T12:09:36.920Z,24.70
2023-05-19T12:10:36.909Z,24.80
2023-05-19T12:11:36.878Z,24.65
2023-05-19T12:12:51.549Z,23.10
2023-05-19T12:13:36.868Z,22.68
2023-05-19T12:14:36.837Z,21.77
2023-05-19T12:15:36.828Z,21.43
2023-05-19T12:16:36.862Z,21.57
2023-05-19T12:17:36.851Z,22.06
2023-05-19T12:18:36.807Z,21.51
2023-05-19T12:19:36.775Z,21.50
2023-05-19T12:20:36.755Z,22.15
2023-05-19T12:21:36.750Z,23.68
2023-05-19T12:22:36.761Z,24.70
2023-05-19T12:23:36.722Z,25.25
2023-05-19T12:24:36.711Z,26.23
2023-05-19T12:25:36.996Z,27.08
2023-05-19T12:26:36.691Z,27.52
2023-05-19T12:27:36.688Z,26.71
2023-05-19T12:28:36.741Z,26.75
2023-05-19T12:29:36.653Z,26.18
2023-05-19T12:30:36.865Z,25.93
2023-05-19T12:31:36.706Z,24.84
2023-05-19T12:32:36.670Z,22.48
2023-05-19T12:33:36.607Z,22.78
2023-05-19T12:34:36.580Z,23.17
2023-05-19T12:35:36.614Z,23.51
2023-05-19T12:36:36.572Z,23.84
2023-05-19T12:37:36.542Z,23.99
2023-05-19T12:38:36.528Z,23.99
2023-05-19T12:39:36.515Z,23.99
2023-05-19T12:40:36.965Z,24.23
2023-05-19T12:41:36.574Z,24.50
2023-05-19T12:42:36.495Z,24.69
2023-05-19T12:43:36.483Z,24.69
2023-05-19T12:44:36.504Z,24.55
2023-05-19T12:45:36.529Z,24.40
2023-05-19T12:46:36.447Z,24.54
2023-05-19T12:47:36.526Z,24.58
2023-05-19T12:48:36.406Z,24.81
2023-05-19T12:49:36.393Z,25.65
2023-05-19T12:50:36.593Z,26.48
2023-05-19T12:51:36.366Z,26.31
2023-05-19T12:52:36.350Z,26.78
2023-05-19T12:53:36.338Z,27.73
2023-05-19T12:54:37.140Z,27.83
2023-05-19T12:55:36.336Z,27.77
2023-05-19T12:56:36.299Z,27.52
2023-05-19T12:57:36.295Z,27.68
2023-05-19T12:58:36.281Z,27.26
2023-05-19T12:59:38.846Z,27.02
2023-05-19T13:00:36.675Z,27.00
2023-05-19T13:01:36.291Z,26.95
2023-05-19T13:02:36.486Z,26.37